Time;durP1;ratioP1;P1;durP2;ratioP2;P2;SDS_P1;SDS_P2;PMS_P1;PMS_P2;Temp;Humidity;BMP_temperature;BMP_pressure;BME280_temperature;BME280_humidity;BME280_pressure;Samples;Min_cycle;Max_cycle;Signal;HPM_P1;HPM_P2
2020/12/25 00:00:56;;;;;;;6.40;3.42;;;;;;;3.70;96.02;100584.59;4995228;28;20051;-58
2020/12/25 00:03:35;;;;;;;6.03;3.55;;;;;;;3.58;95.47;100584.94;5003804;28;20052;-56
2020/12/25 00:06:02;;;;;;;10.38;4.22;;;;;;;3.61;96.48;100590.06;4994853;28;20044;-57
2020/12/25 00:08:29;;;;;;;10.40;4.40;;;;;;;3.69;96.33;100595.91;4991743;28;20062;-57
2020/12/25 00:11:00;;;;;;;9.93;3.80;;;;;;;3.74;96.07;100595.75;5003214;28;20046;-57
2020/12/25 00:13:26;;;;;;;5.30;2.92;;;;;;;3.73;95.51;100591.41;4993548;28;20694;-57
2020/12/25 00:15:53;;;;;;;7.38;3.53;;;;;;;3.69;95.38;100584.59;5010492;28;20056;-57
2020/12/25 00:18:20;;;;;;;5.85;3.20;;;;;;;3.68;96.19;100591.56;5002340;28;20200;-57
2020/12/25 00:20:49;;;;;;;6.95;3.15;;;;;;;3.77;95.79;100588.69;4998310;28;20064;-57
2020/12/25 00:23:16;;;;;;;6.15;3.10;;;;;;;3.62;95.33;100591.78;4997172;28;20054;-57
2020/12/25 00:25:43;;;;;;;7.70;3.08;;;;;;;3.74;95.46;100600.97;5005371;28;20049;-57
2020/12/25 00:28:10;;;;;;;8.60;3.70;;;;;;;3.85;95.24;100600.63;5003521;28;20419;-57
2020/12/25 00:30:42;;;;;;;6.70;3.28;;;;;;;3.86;96.21;100597.94;5004748;28;20061;-55
2020/12/25 00:33:11;;;;;;;21.58;7.50;;;;;;;3.94;95.79;100605.53;5002233;28;20607;-56
2020/12/25 00:35:41;;;;;;;8.68;3.10;;;;;;;3.87;94.98;100607.47;5009003;28;20053;-53
2020/12/25 00:38:07;;;;;;;8.50;3.70;;;;;;;4.03;93.86;100613.06;4998681;28;20057;-56
2020/12/25 00:40:34;;;;;;;5.43;3.40;;;;;;;4.13;94.37;100611.84;4984021;28;20050;-57
2020/12/25 00:43:01;;;;;;;8.13;3.42;;;;;;;3.98;94.12;100614.94;4984342;28;20121;-58
2020/12/25 00:45:27;;;;;;;5.82;2.63;;;;;;;3.87;93.68;100617.88;4985465;28;20256;-58
2020/12/25 00:47:55;;;;;;;6.05;3.38;;;;;;;3.49;94.84;100626.88;4970198;28;20084;-52
2020/12/25 00:50:21;;;;;;;6.03;3.38;;;;;;;3.59;95.92;100628.28;5005362;28;20658;-52
2020/12/25 00:52:48;;;;;;;10.07;3.03;;;;;;;3.57;95.82;100634.47;4996701;28;20068;-55
2020/12/25 00:55:15;;;;;;;7.05;3.72;;;;;;;3.58;95.83;100634.41;4977081;28;20074;-58
2020/12/25 00:57:41;;;;;;;4.65;3.13;;;;;;;3.67;95.99;100636.72;5006965;28;20053;-55
2020/12/25 01:00:08;;;;;;;6.18;2.75;;;;;;;3.61;94.66;100649.09;4993084;28;20049;-57
2020/12/25 01:02:35;;;;;;;9.52;3.88;;;;;;;3.30;96.75;100653.44;5006355;28;20046;-52
2020/12/25 01:05:02;;;;;;;6.90;3.40;;;;;;;3.40;96.36;100654.00;4994462;28;20046;-57
2020/12/25 01:07:29;;;;;;;5.00;2.67;;;;;;;3.49;96.55;100655.50;4973371;28;20050;-55
2020/12/25 01:09:56;;;;;;;6.63;2.90;;;;;;;3.57;95.63;100666.56;4999653;28;20154;-59
2020/12/25 01:12:22;;;;;;;7.25;3.22;;;;;;;3.58;96.14;100663.03;4990557;28;20046;-54
2020/12/25 01:14:49;;;;;;;7.07;3.03;;;;;;;3.59;95.65;100671.69;4995583;28;20403;-55
2020/12/25 01:17:16;;;;;;;5.32;2.45;;;;;;;3.53;95.71;100684.00;4997785;28;20056;-59
2020/12/25 01:19:42;;;;;;;4.20;2.42;;;;;;;3.33;95.37;100675.03;5004571;28;20054;-57
2020/12/25 01:22:09;;;;;;;6.22;2.67;;;;;;;3.47;95.04;100676.38;4997224;28;20049;-56
2020/12/25 01:24:36;;;;;;;10.15;3.35;;;;;;;3.44;95.51;100678.22;5004740;28;20261;-55
2020/12/25 01:27:02;;;;;;;4.70;3.03;;;;;;;3.33;95.86;100691.50;5000998;28;20050;-53
2020/12/25 01:29:29;;;;;;;6.03;2.70;;;;;;;3.39;95.64;100691.34;5001933;28;20087;-56
2020/12/25 01:31:57;;;;;;;8.07;2.88;;;;;;;3.57;95.06;100696.94;4995989;28;20527;-53
2020/12/25 01:34:32;;;;;;;4.17;2.27;;;;;;;3.42;94.80;100699.09;4999818;28;20050;-57
2020/12/25 01:36:59;;;;;;;4.35;2.30;;;;;;;3.46;93.90;100702.44;4995671;28;21101;-52
2020/12/25 01:39:26;;;;;;;5.95;2.17;;;;;;;3.34;94.68;100701.03;4995731;28;20517;-56
2020/12/25 01:41:52;;;;;;;7.55;2.15;;;;;;;3.41;94.94;100699.09;5002779;28;20483;-55
2020/12/25 01:44:19;;;;;;;4.95;2.20;;;;;;;3.48;94.20;100706.72;5001141;28;20069;-56
2020/12/25 01:46:46;;;;;;;5.25;2.72;;;;;;;3.54;93.88;100710.88;4979806;28;20069;-54
2020/12/25 01:49:13;;;;;;;5.35;2.47;;;;;;;3.33;93.45;100709.72;5002560;28;20052;-52
2020/12/25 01:51:40;;;;;;;4.30;1.63;;;;;;;3.22;93.57;100712.63;4987508;28;20069;-57
2020/12/25 01:54:06;;;;;;;5.65;1.70;;;;;;;3.06;93.55;100708.72;5005947;28;20054;-56
2020/12/25 01:56:33;;;;;;;5.13;1.90;;;;;;;3.01;92.88;100708.84;4982954;28;20663;-59
2020/12/25 01:59:00;;;;;;;6.75;2.47;;;;;;;3.01;93.35;100702.78;4997088;28;20143;-52
2020/12/25 02:01:27;;;;;;;3.83;1.50;;;;;;;3.06;91.83;100708.72;4992944;28;21316;-55
2020/12/25 02:03:53;;;;;;;4.57;1.60;;;;;;;3.23;92.09;100703.91;4981051;28;20047;-57
2020/12/25 02:06:20;;;;;;;3.85;1.50;;;;;;;3.12;91.90;100700.78;4989127;28;20054;-56
2020/12/25 02:08:47;;;;;;;5.35;1.30;;;;;;;3.05;91.88;100709.63;5014085;23;20063;-57
2020/12/25 02:11:15;;;;;;;6.18;1.35;;;;;;;2.94;91.22;100722.91;5000539;28;20058;-58
2020/12/25 02:13:42;;;;;;;4.45;1.60;;;;;;;2.92;92.40;100726.44;5001157;28;20069;-61
2020/12/25 02:16:08;;;;;;;2.53;1.15;;;;;;;3.04;92.29;100720.94;5006807;28;20058;-60
2020/12/25 02:18:38;;;;;;;4.13;0.90;;;;;;;2.95;90.69;100732.41;4994812;28;20058;-57
2020/12/25 02:21:05;;;;;;;2.33;1.02;;;;;;;2.92;90.50;100737.69;4998490;28;20429;-60
2020/12/25 02:23:32;;;;;;;3.17;0.80;;;;;;;2.81;89.82;100739.72;4957546;28;20050;-59
2020/12/25 02:25:58;;;;;;;4.53;0.98;;;;;;;2.86;89.78;100735.25;5005188;28;20049;-61
2020/12/25 02:28:25;;;;;;;1.20;0.80;;;;;;;2.84;89.35;100742.25;4998145;28;20486;-55
2020/12/25 02:30:52;;;;;;;1.90;1.08;;;;;;;2.82;89.56;100743.16;5004006;28;20700;-59
2020/12/25 02:33:19;;;;;;;3.75;0.93;;;;;;;2.83;88.17;100744.88;5010803;28;20064;-58
2020/12/25 02:35:45;;;;;;;3.15;1.10;;;;;;;2.83;88.28;100743.13;5009793;28;20468;-61
2020/12/25 02:38:12;;;;;;;2.25;0.80;;;;;;;2.69;87.89;100738.28;5001784;28;20077;-58
2020/12/25 02:40:39;;;;;;;1.35;0.50;;;;;;;2.68;87.35;100741.75;5000287;28;20058;-60
2020/12/25 02:43:06;;;;;;;1.52;0.88;;;;;;;2.78;87.82;100745.00;4992541;28;20153;-60
2020/12/25 02:45:32;;;;;;;1.80;0.80;;;;;;;2.81;nan;100747.53;4981917;28;20483;-61
2020/12/25 02:47:59;;;;;;;3.33;1.00;;;;;;;2.64;87.71;100744.47;5001127;28;20049;-60
2020/12/25 02:50:26;;;;;;;2.20;0.80;;;;;;;2.67;87.57;100740.06;4986653;28;20285;-61
2020/12/25 02:52:52;;;;;;;3.35;0.73;;;;;;;2.72;87.71;100752.94;5000063;28;20060;-62
2020/12/25 02:55:19;;;;;;;1.77;0.50;;;;;;;2.65;86.25;100754.81;4996060;28;20058;-59
2020/12/25 02:57:46;;;;;;;4.00;0.63;;;;;;;2.44;86.55;100760.56;5013314;28;20077;-56
2020/12/25 03:00:13;;;;;;;1.90;0.60;;;;;;;2.69;85.73;100755.63;4997504;28;20529;-57
2020/12/25 03:02:40;;;;;;;6.10;0.60;;;;;;;2.54;86.10;100764.66;5008312;28;20073;-59
2020/12/25 03:05:06;;;;;;;2.42;0.88;;;;;;;2.51;86.29;100760.34;5005169;28;20482;-59
2020/12/25 03:07:33;;;;;;;1.70;0.70;;;;;;;2.49;86.40;100762.16;4997225;28;20122;-59
2020/12/25 03:10:00;;;;;;;3.92;0.80;;;;;;;2.52;85.21;100759.50;5006042;28;20060;-57
2020/12/25 03:12:27;;;;;;;2.05;0.70;;;;;;;2.51;85.33;100756.91;4991692;28;20050;-59
2020/12/25 03:14:53;;;;;;;2.38;0.70;;;;;;;2.50;84.53;100763.00;5004217;28;20050;-58
2020/12/25 03:17:20;;;;;;;1.20;0.60;;;;;;;2.46;84.38;100763.97;5007989;28;20058;-59
2020/12/25 03:19:47;;;;;;;2.35;0.57;;;;;;;2.48;84.10;100762.19;4994399;28;20066;-58
2020/12/25 03:22:13;;;;;;;3.05;1.00;;;;;;;2.44;85.44;100768.34;4997795;28;20054;-59
2020/12/25 03:24:40;;;;;;;1.58;0.50;;;;;;;2.41;84.65;100773.63;4991890;28;20518;-59
2020/12/25 03:27:07;;;;;;;3.28;0.90;;;;;;;2.34;84.99;100777.22;4995032;28;20042;-60
2020/12/25 03:29:33;;;;;;;2.15;0.68;;;;;;;2.34;84.73;100778.06;4976028;28;20050;-58
2020/12/25 03:32:00;;;;;;;2.35;0.75;;;;;;;2.28;85.06;100767.84;5000321;28;20153;-58
2020/12/25 03:34:28;;;;;;;2.80;0.65;;;;;;;2.28;84.82;100780.81;4980155;28;20242;-60
2020/12/25 03:36:55;;;;;;;1.60;0.60;;;;;;;2.31;84.72;100778.16;4995391;28;20064;-58
2020/12/25 03:39:22;;;;;;;4.72;0.77;;;;;;;2.26;85.47;100777.41;5000041;28;20054;-58
2020/12/25 03:41:49;;;;;;;1.73;0.52;;;;;;;2.29;85.88;100775.59;5010971;28;20054;-58
2020/12/25 03:44:16;;;;;;;0.80;0.50;;;;;;;2.19;85.35;100781.88;4992955;28;20046;-59
2020/12/25 03:46:42;;;;;;;1.02;0.50;;;;;;;2.12;85.85;100787.25;4998591;28;20383;-57
2020/12/25 03:49:13;;;;;;;3.20;1.02;;;;;;;2.23;85.80;100790.47;4996504;28;20089;-58
2020/12/25 03:51:39;;;;;;;1.17;0.60;;;;;;;2.29;85.26;100795.50;5000687;28;20053;-60
2020/12/25 03:54:06;;;;;;;1.95;0.52;;;;;;;2.37;85.87;100793.59;4998960;28;20126;-60
2020/12/25 03:56:33;;;;;;;2.63;0.90;;;;;;;2.47;85.35;100792.50;4994800;28;20274;-59
2020/12/25 03:58:59;;;;;;;1.67;0.55;;;;;;;2.35;85.44;100789.34;4995140;28;20144;-58
2020/12/25 04:01:26;;;;;;;2.00;0.60;;;;;;;2.42;85.57;100798.69;5003287;28;20072;-60
2020/12/25 04:03:53;;;;;;;1.00;0.60;;;;;;;2.39;86.03;100793.59;5000659;28;20092;-59
2020/12/25 04:06:20;;;;;;;3.75;0.98;;;;;;;2.55;85.87;100792.34;5008442;28;20058;-59
2020/12/25 04:08:46;;;;;;;0.80;0.52;;;;;;;2.59;84.99;100793.97;4995824;28;20562;-59
2020/12/25 04:11:13;;;;;;;1.67;0.52;;;;;;;2.42;86.03;100796.94;5002609;28;20088;-59
2020/12/25 04:13:40;;;;;;;2.40;1.45;;;;;;;2.35;86.66;100802.34;5000512;28;20053;-61
2020/12/25 04:16:07;;;;;;;1.40;0.57;;;;;;;2.55;85.63;100802.72;5008271;28;20045;-60
2020/12/25 04:18:34;;;;;;;1.33;0.57;;;;;;;2.72;86.61;100811.00;4993162;28;20511;-58
2020/12/25 04:21:00;;;;;;;1.52;0.70;;;;;;;2.61;85.73;100815.59;5004263;28;20515;-60
2020/12/25 04:23:30;;;;;;;2.53;0.50;;;;;;;2.63;86.46;100825.94;4992701;28;20058;-59
2020/12/25 04:25:57;;;;;;;1.05;0.40;;;;;;;2.74;86.82;100826.53;4994574;28;20601;-60
2020/12/25 04:28:23;;;;;;;3.13;0.80;;;;;;;2.75;86.70;100831.72;4997769;28;20707;-58
2020/12/25 04:30:50;;;;;;;2.72;1.00;;;;;;;2.83;86.58;100830.66;4990878;28;20085;-58
2020/12/25 04:33:17;;;;;;;3.15;0.60;;;;;;;2.90;86.96;100832.25;4997673;28;20088;-58
2020/12/25 04:35:43;;;;;;;1.70;0.80;;;;;;;2.85;87.27;100831.50;4994740;28;20047;-58
2020/12/25 04:38:11;;;;;;;2.55;0.65;;;;;;;2.94;87.34;100832.13;4995918;28;20046;-60
2020/12/25 04:40:38;;;;;;;1.52;0.60;;;;;;;3.01;87.26;100835.44;5000990;28;20093;-59
2020/12/25 04:43:05;;;;;;;1.88;0.65;;;;;;;2.96;87.45;100838.13;5002559;28;20050;-61
2020/12/25 04:45:32;;;;;;;3.20;0.70;;;;;;;2.86;87.05;100843.59;5000527;28;20133;-60
2020/12/25 04:47:58;;;;;;;1.85;0.90;;;;;;;2.86;86.33;100849.66;4982942;28;20050;-59
2020/12/25 04:50:25;;;;;;;5.05;0.80;;;;;;;2.87;87.10;100858.31;4997259;28;20074;-60
2020/12/25 04:52:52;;;;;;;3.28;0.80;;;;;;;2.97;87.58;100860.69;4965870;28;20054;-58
2020/12/25 04:55:19;;;;;;;2.08;0.85;;;;;;;2.92;87.65;100857.31;5007939;28;20502;-58
2020/12/25 04:57:46;;;;;;;1.40;0.77;;;;;;;2.87;88.85;100860.91;5009912;28;20060;-60
2020/12/25 05:00:22;;;;;;;4.38;0.82;;;;;;;2.99;89.33;100863.22;5006982;28;20056;-59
2020/12/25 05:02:50;;;;;;;3.38;0.68;;;;;;;2.92;89.99;100870.31;5004446;28;20324;-61
2020/12/25 05:05:29;;;;;;;3.30;0.93;;;;;;;2.83;90.64;100864.47;5000737;28;20407;-59
2020/12/25 05:07:57;;;;;;;4.63;0.60;;;;;;;2.75;90.04;100865.53;4995038;28;20068;-56
2020/12/25 05:10:24;;;;;;;3.00;0.75;;;;;;;2.67;91.61;100867.44;5007051;28;20049;-60
2020/12/25 05:12:51;;;;;;;1.75;0.85;;;;;;;2.55;91.41;100875.50;5000824;28;20506;-60
2020/12/25 05:15:17;;;;;;;2.65;1.02;;;;;;;2.44;92.42;100874.88;5007398;28;20045;-57
2020/12/25 05:17:45;;;;;;;6.18;0.90;;;;;;;2.61;92.79;100883.19;5000801;28;20050;-57
2020/12/25 05:20:12;;;;;;;1.52;0.88;;;;;;;2.64;92.12;100882.25;4996752;28;20046;-59
2020/12/25 05:22:39;;;;;;;1.75;0.80;;;;;;;2.61;91.81;100890.09;5004940;28;20125;-59
2020/12/25 05:25:07;;;;;;;1.50;0.70;;;;;;;2.60;92.17;100890.97;4991839;28;20033;-58
2020/12/25 05:27:34;;;;;;;1.52;0.90;;;;;;;2.65;91.89;100891.72;4995743;28;20065;-56
2020/12/25 05:30:03;;;;;;;1.42;0.52;;;;;;;2.70;91.94;100890.78;5004347;28;20124;-56
2020/12/25 05:32:32;;;;;;;1.98;0.90;;;;;;;2.79;90.41;100894.88;4994826;28;20054;-55
2020/12/25 05:34:59;;;;;;;2.15;0.70;;;;;;;2.69;90.17;100899.44;4996886;28;20054;-60
2020/12/25 05:37:36;;;;;;;2.85;1.10;;;;;;;2.75;90.07;100903.66;5000553;28;20158;-61
2020/12/25 05:40:05;;;;;;;1.55;0.50;;;;;;;2.90;89.56;100902.47;5001774;28;20051;-58
2020/12/25 05:42:48;;;;;;;2.83;0.73;;;;;;;2.65;88.71;100908.19;4998976;28;20050;-60
2020/12/25 05:45:19;;;;;;;2.45;0.68;;;;;;;2.59;86.86;100910.06;4997152;28;20050;-61
2020/12/25 05:47:47;;;;;;;1.65;0.60;;;;;;;2.37;87.38;100909.66;4999116;28;20082;-60
2020/12/25 05:50:20;;;;;;;4.18;0.65;;;;;;;2.45;85.48;100919.00;4994374;28;20050;-59
2020/12/25 05:52:48;;;;;;;0.95;0.50;;;;;;;2.58;84.65;100916.16;4976763;28;20149;-56
2020/12/25 05:55:17;;;;;;;2.05;0.65;;;;;;;2.54;85.74;100917.97;5000728;28;20530;-59
2020/12/25 05:57:50;;;;;;;2.35;0.57;;;;;;;2.66;84.08;100922.91;4998924;28;20625;-58
2020/12/25 06:00:17;;;;;;;2.72;0.68;;;;;;;2.61;84.89;100929.06;4989423;28;20046;-58
2020/12/25 06:02:48;;;;;;;1.48;0.40;;;;;;;2.38;84.54;100935.59;4996448;28;20422;-61
2020/12/25 06:05:16;;;;;;;4.85;0.60;;;;;;;2.20;85.52;100944.63;4976821;28;20042;-59
2020/12/25 06:07:50;;;;;;;1.00;0.52;;;;;;;2.41;86.87;100956.34;4989250;28;20053;-58
2020/12/25 06:10:19;;;;;;;0.50;0.43;;;;;;;2.46;87.69;100954.50;5003154;28;20061;-54
2020/12/25 06:12:49;;;;;;;0.90;0.52;;;;;;;2.49;87.22;100954.44;5010212;28;20054;-62
2020/12/25 06:15:32;;;;;;;2.95;0.50;;;;;;;2.45;87.23;100960.59;5006247;28;20046;-61
2020/12/25 06:18:37;;;;;;;0.95;0.70;;;;;;;2.56;87.84;100955.16;4999302;28;20515;-58
2020/12/25 06:21:10;;;;;;;2.22;1.17;;;;;;;2.51;89.21;100968.25;4993703;28;20047;-60
2020/12/25 06:23:39;;;;;;;1.65;0.60;;;;;;;2.44;90.08;100969.28;4996027;28;20085;-60
2020/12/25 06:26:07;;;;;;;3.53;1.20;;;;;;;2.25;91.33;100974.00;4976892;28;20050;-55
2020/12/25 06:28:39;;;;;;;2.30;0.70;;;;;;;2.40;91.61;100983.22;5004557;28;20049;-56
2020/12/25 06:31:11;;;;;;;1.52;0.90;;;;;;;2.46;91.50;100983.09;4982437;28;20050;-60
2020/12/25 06:33:37;;;;;;;3.80;0.90;;;;;;;2.28;92.46;100986.03;4996757;28;20097;-60
2020/12/25 06:36:04;;;;;;;3.67;0.90;;;;;;;2.32;92.54;100989.44;4992807;28;20073;-60
2020/12/25 06:38:37;;;;;;;3.70;0.98;;;;;;;2.38;92.66;100987.56;5010738;28;20500;-60
2020/12/25 06:41:04;;;;;;;6.20;2.05;;;;;;;2.23;93.15;100993.06;5009064;28;20104;-59
2020/12/25 06:43:31;;;;;;;1.83;1.00;;;;;;;2.16;93.90;100996.66;4986419;28;20085;-57
2020/12/25 06:45:59;;;;;;;4.95;1.40;;;;;;;2.02;94.72;100992.56;5003788;28;20056;-58
2020/12/25 06:48:28;;;;;;;2.03;1.23;;;;;;;2.24;95.03;100995.63;4989967;28;20057;-57
2020/12/25 06:50:59;;;;;;;4.93;1.60;;;;;;;2.50;94.49;100994.28;5007614;28;20058;-57
2020/12/25 06:53:38;;;;;;;2.75;1.08;;;;;;;2.32;93.61;100997.25;5006573;28;20124;-58
2020/12/25 06:56:08;;;;;;;2.15;1.15;;;;;;;2.05;95.10;101004.66;5001481;28;20050;-57
2020/12/25 06:58:40;;;;;;;3.92;1.33;;;;;;;2.11;94.68;100998.47;5002035;28;20115;-55
2020/12/25 07:01:08;;;;;;;5.18;2.08;;;;;;;2.45;95.49;101001.31;5009803;28;20054;-60
2020/12/25 07:03:36;;;;;;;2.88;1.40;;;;;;;2.44;94.57;100999.59;4989060;28;20137;-56
2020/12/25 07:06:04;;;;;;;2.67;1.42;;;;;;;2.57;93.41;101003.69;4995405;28;20046;-58
2020/12/25 07:08:38;;;;;;;1.88;1.00;;;;;;;2.51;93.48;101015.03;4995813;28;20046;-58
2020/12/25 07:11:07;;;;;;;3.47;1.20;;;;;;;2.56;91.64;101011.50;5008612;28;20058;-60
2020/12/25 07:13:35;;;;;;;1.98;1.00;;;;;;;2.42;92.87;101014.34;4998905;28;20050;-58
2020/12/25 07:16:03;;;;;;;4.53;1.20;;;;;;;2.52;92.32;101021.97;5009771;28;20050;-60
2020/12/25 07:18:29;;;;;;;2.47;1.10;;;;;;;2.54;91.07;101021.94;4994851;28;20104;-57
2020/12/25 07:21:00;;;;;;;3.75;1.02;;;;;;;2.63;90.78;101033.88;5001244;28;20057;-55
2020/12/25 07:23:27;;;;;;;10.68;2.75;;;;;;;2.62;90.81;101029.59;4997838;28;20062;-60
2020/12/25 07:25:59;;;;;;;6.78;1.38;;;;;;;2.53;90.79;101036.66;5002398;28;20074;-62
2020/12/25 07:28:28;;;;;;;2.97;1.00;;;;;;;2.44;90.14;101039.44;5007029;28;20065;-57
2020/12/25 07:30:56;;;;;;;4.40;1.17;;;;;;;2.66;90.01;101041.63;4986464;28;20054;-61
2020/12/25 07:33:24;;;;;;;2.65;1.10;;;;;;;2.65;90.28;101038.16;5004175;28;20065;-60
2020/12/25 07:35:51;;;;;;;3.92;1.20;;;;;;;2.49;90.45;101037.59;5001730;28;20414;-59
2020/12/25 07:38:28;;;;;;;2.03;0.90;;;;;;;2.53;90.29;101043.59;4997851;28;20494;-59
2020/12/25 07:40:55;;;;;;;1.65;0.60;;;;;;;2.36;90.60;101041.31;4979292;28;20399;-61
2020/12/25 07:43:21;;;;;;;4.88;1.30;;;;;;;2.34;90.72;101047.41;4997823;28;20050;-60
2020/12/25 07:45:48;;;;;;;3.75;1.00;;;;;;;2.23;91.51;101050.22;5009236;28;20156;-59
2020/12/25 07:48:15;;;;;;;2.42;0.93;;;;;;;2.24;90.99;101062.31;4998572;28;20042;-60
2020/12/25 07:50:43;;;;;;;4.68;1.52;;;;;;;2.27;91.80;101065.72;5002568;28;20061;-58
2020/12/25 07:53:14;;;;;;;3.83;1.00;;;;;;;2.20;90.47;101061.50;5004282;28;20389;-62
2020/12/25 07:55:44;;;;;;;5.40;1.30;;;;;;;2.29;90.08;101065.69;4998002;28;20056;-58
2020/12/25 07:58:12;;;;;;;4.00;1.10;;;;;;;2.27;90.38;101075.25;5000527;28;20150;-58
2020/12/25 08:00:40;;;;;;;3.53;1.48;;;;;;;2.33;90.11;101076.88;4998268;28;20153;-56
2020/12/25 08:03:07;;;;;;;2.72;0.90;;;;;;;2.33;90.02;101076.88;5004713;28;20054;-58
2020/12/25 08:05:35;;;;;;;4.97;1.13;;;;;;;2.23;90.21;101079.66;5006031;28;20414;-61
2020/12/25 08:08:03;;;;;;;1.88;1.00;;;;;;;2.28;90.34;101083.00;4983941;23;20049;-54
2020/12/25 08:10:30;;;;;;;2.10;0.90;;;;;;;2.29;90.65;101094.25;5010931;28;20050;-55
2020/12/25 08:12:58;;;;;;;3.70;1.70;;;;;;;2.26;90.13;101092.59;5001040;28;20073;-54
2020/12/25 08:15:26;;;;;;;2.30;1.00;;;;;;;2.27;90.02;101096.03;5013353;28;20046;-54
2020/12/25 08:17:54;;;;;;;1.33;0.80;;;;;;;2.30;89.84;101093.41;5024851;28;20250;-53
2020/12/25 08:20:22;;;;;;;2.45;0.75;;;;;;;2.24;89.31;101098.69;5011961;28;20037;-55
2020/12/25 08:22:50;;;;;;;3.63;0.82;;;;;;;2.23;89.12;101097.81;5014167;28;20057;-59
2020/12/25 08:25:17;;;;;;;2.13;0.68;;;;;;;2.26;88.82;101099.53;5014707;28;20066;-56
2020/12/25 08:27:44;;;;;;;3.17;0.80;;;;;;;2.24;89.35;101102.13;5008812;28;20137;-56
2020/12/25 08:30:11;;;;;;;1.02;0.47;;;;;;;2.42;88.66;101097.50;5003339;28;20061;-58
2020/12/25 08:32:40;;;;;;;6.60;1.38;;;;;;;2.46;88.34;101100.03;5016744;28;20051;-60
2020/12/25 08:35:11;;;;;;;1.38;0.75;;;;;;;2.49;87.19;101106.91;4982835;28;20053;-55
2020/12/25 08:37:38;;;;;;;2.72;0.95;;;;;;;2.34;87.48;101113.22;5011347;28;20049;-56
2020/12/25 08:40:15;;;;;;;3.08;0.80;;;;;;;2.49;88.21;101115.56;5008767;28;20049;-55
2020/12/25 08:42:42;;;;;;;1.70;0.80;;;;;;;2.43;88.30;101113.09;4992274;28;20069;-57
2020/12/25 08:45:20;;;;;;;4.38;0.80;;;;;;;2.40;87.55;101120.06;5009272;28;20046;-56
2020/12/25 08:48:09;;;;;;;4.25;0.82;;;;;;;2.38;88.06;101120.09;5009199;28;20111;-51
2020/12/25 08:50:40;;;;;;;3.50;1.00;;;;;;;2.26;88.63;101123.75;5011312;28;20052;-55
2020/12/25 08:53:17;;;;;;;1.38;0.70;;;;;;;2.38;88.50;101132.22;5007963;28;20546;-58
2020/12/25 08:55:56;;;;;;;6.68;1.35;;;;;;;2.52;87.93;101122.44;5010654;28;20519;-58
2020/12/25 08:58:23;;;;;;;5.28;0.90;;;;;;;2.62;88.11;101131.81;4991064;28;20350;-59
2020/12/25 09:00:59;;;;;;;3.05;1.15;;;;;;;2.49;88.03;101132.91;5016270;28;20061;-54
2020/12/25 09:03:46;;;;;;;3.92;0.90;;;;;;;2.33;87.80;101136.63;5010868;28;20117;-56
2020/12/25 09:06:13;;;;;;;2.03;0.75;;;;;;;2.38;88.08;101146.06;5010277;28;20519;-57
2020/12/25 09:08:40;;;;;;;5.93;1.05;;;;;;;2.52;87.66;101138.91;5016972;28;20111;-58
2020/12/25 09:11:12;;;;;;;1.35;0.80;;;;;;;2.52;87.02;101146.72;5006133;28;20052;-57
2020/12/25 09:13:40;;;;;;;3.45;1.10;;;;;;;2.60;87.55;101143.09;5003840;28;20133;-59
2020/12/25 09:16:07;;;;;;;5.22;0.90;;;;;;;2.46;87.47;101146.78;5011281;28;20344;-59
2020/12/25 09:18:34;;;;;;;2.65;1.17;;;;;;;2.63;87.03;101148.25;5004288;28;20054;-54
2020/12/25 09:21:01;;;;;;;3.47;0.85;;;;;;;2.72;87.21;101142.88;5014563;28;20046;-56
2020/12/25 09:23:28;;;;;;;3.85;1.10;;;;;;;2.83;85.52;101140.06;5014004;28;20061;-55
2020/12/25 09:25:57;;;;;;;2.67;1.00;;;;;;;2.56;85.75;101157.88;5005557;28;20731;-55
2020/12/25 09:28:24;;;;;;;5.68;1.02;;;;;;;2.77;86.24;101148.84;5011769;28;20127;-58
2020/12/25 09:30:52;;;;;;;11.85;4.88;;;;;;;3.35;85.21;101152.06;5012350;28;20054;-56
2020/12/25 09:33:19;;;;;;;2.13;1.10;;;;;;;3.29;84.46;101143.50;5001992;28;20530;-56
2020/12/25 09:35:46;;;;;;;6.18;1.00;;;;;;;3.33;83.92;101153.84;5011890;28;20511;-58
2020/12/25 09:38:13;;;;;;;3.97;0.93;;;;;;;3.37;82.60;101147.69;5011106;28;20426;-56
2020/12/25 09:40:39;;;;;;;5.85;1.15;;;;;;;3.48;82.92;101162.19;5011938;28;20058;-57
2020/12/25 09:43:07;;;;;;;4.72;1.05;;;;;;;3.20;83.83;101155.84;5017953;28;20113;-55
2020/12/25 09:45:33;;;;;;;2.95;0.90;;;;;;;3.07;83.63;101159.59;5011051;28;20530;-54
2020/12/25 09:48:00;;;;;;;3.15;0.95;;;;;;;3.25;84.09;101162.66;5005365;28;20058;-55
2020/12/25 09:50:27;;;;;;;4.05;1.10;;;;;;;3.54;83.14;101169.00;5003493;28;20137;-56
2020/12/25 09:52:54;;;;;;;7.55;2.67;;;;;;;3.62;82.72;101153.22;5002900;28;20072;-55
2020/12/25 09:55:21;;;;;;;5.07;1.30;;;;;;;3.94;80.93;101155.97;5020161;28;20057;-56
2020/12/25 09:57:48;;;;;;;2.17;0.90;;;;;;;3.73;80.79;101146.88;5007325;28;20077;-57
2020/12/25 10:00:15;;;;;;;4.95;1.58;;;;;;;3.53;81.95;101162.94;5010677;28;20050;-55
2020/12/25 10:02:42;;;;;;;3.85;1.20;;;;;;;3.34;82.47;101155.56;4988411;28;20045;-55
2020/12/25 10:05:10;;;;;;;2.05;1.00;;;;;;;3.36;82.42;101161.59;5004510;28;20504;-55
2020/12/25 10:07:37;;;;;;;26.98;12.75;;;;;;;3.36;84.07;101167.66;4990966;28;20122;-58
2020/12/25 10:10:06;;;;;;;4.45;1.42;;;;;;;3.60;82.34;101165.41;4982931;28;20101;-60
2020/12/25 10:12:33;;;;;;;2.67;0.88;;;;;;;3.57;80.62;101165.50;5003517;28;20049;-53
2020/12/25 10:15:00;;;;;;;4.90;1.17;;;;;;;3.26;82.30;101166.13;5011602;28;20404;-57
2020/12/25 10:17:27;;;;;;;2.47;0.90;;;;;;;3.12;81.77;101168.16;5010376;28;20057;-56
2020/12/25 10:19:53;;;;;;;2.83;1.20;;;;;;;3.09;82.62;101176.84;5013300;28;20157;-54
2020/12/25 10:22:21;;;;;;;6.07;1.15;;;;;;;3.08;82.05;101174.28;5012978;28;20046;-56
2020/12/25 10:24:48;;;;;;;4.18;0.98;;;;;;;3.05;81.61;101176.06;5015281;28;20461;-54
2020/12/25 10:27:15;;;;;;;3.47;1.00;;;;;;;3.30;81.55;101173.00;5006323;28;20072;-59
2020/12/25 10:29:42;;;;;;;4.97;1.10;;;;;;;3.33;80.88;101178.09;5013389;28;20054;-54
2020/12/25 10:32:09;;;;;;;3.42;0.85;;;;;;;3.24;81.62;101176.56;5014326;28;20058;-54
2020/12/25 10:34:35;;;;;;;5.03;1.05;;;;;;;3.18;81.11;101178.44;4991989;28;20049;-57
2020/12/25 10:37:02;;;;;;;2.33;1.10;;;;;;;3.02;81.52;101183.94;5006469;28;20038;-58
2020/12/25 10:39:29;;;;;;;3.85;1.20;;;;;;;3.21;80.78;101183.56;5021165;28;20053;-55
2020/12/25 10:41:55;;;;;;;7.38;1.30;;;;;;;3.47;79.82;101186.50;5006384;28;20092;-54
2020/12/25 10:44:22;;;;;;;4.13;1.23;;;;;;;3.30;81.55;101199.84;5014197;28;20483;-55
2020/12/25 10:46:49;;;;;;;2.90;1.00;;;;;;;3.35;81.86;101197.16;5003718;28;20397;-53
2020/12/25 10:49:16;;;;;;;4.28;1.17;;;;;;;3.18;80.64;101196.63;4988710;28;20065;-57
2020/12/25 10:51:46;;;;;;;2.38;0.95;;;;;;;3.05;80.76;101186.47;5005838;28;20069;-57
2020/12/25 10:54:13;;;;;;;1.70;1.00;;;;;;;3.01;80.08;101203.00;5010830;28;20050;-53
2020/12/25 10:56:40;;;;;;;1.73;0.90;;;;;;;3.04;81.50;101207.31;5007322;28;20042;-55
2020/12/25 10:59:22;;;;;;;8.82;3.10;;;;;;;3.32;81.34;101201.56;5013167;28;20426;-52
2020/12/25 11:01:49;;;;;;;7.72;3.33;;;;;;;3.59;80.55;101206.22;5010632;28;20469;-54
2020/12/25 11:04:15;;;;;;;3.22;1.00;;;;;;;3.26;78.69;101213.81;5006728;28;20581;-56
2020/12/25 11:06:44;;;;;;;2.63;0.80;;;;;;;3.15;80.23;101210.56;5005322;28;20065;-57
2020/12/25 11:09:11;;;;;;;3.88;0.90;;;;;;;3.24;79.41;101206.91;5011470;28;20138;-51
2020/12/25 11:11:39;;;;;;;3.83;1.15;;;;;;;3.26;79.86;101205.16;5012674;28;20049;-56
2020/12/25 11:14:07;;;;;;;2.95;0.80;;;;;;;3.22;79.46;101206.94;5010771;28;20208;-54
2020/12/25 11:16:36;;;;;;;7.18;1.50;;;;;;;3.35;80.57;101206.72;5005835;28;20070;-52
2020/12/25 11:19:06;;;;;;;2.95;1.10;;;;;;;3.47;79.84;101207.34;5011323;28;20050;-52
2020/12/25 11:21:33;;;;;;;2.85;0.90;;;;;;;3.26;78.51;101205.16;5010677;28;20089;-56
2020/12/25 11:24:01;;;;;;;2.03;0.77;;;;;;;3.11;78.11;101205.44;5001529;28;20081;-58
2020/12/25 11:26:30;;;;;;;4.00;0.90;;;;;;;3.08;78.62;101197.72;4993808;28;20069;-59
2020/12/25 11:29:04;;;;;;;4.28;1.20;;;;;;;3.09;79.11;101202.00;4981446;28;20061;-58
2020/12/25 11:31:32;;;;;;;3.03;1.15;;;;;;;3.15;79.83;101204.50;5006724;28;20157;-58
2020/12/25 11:33:59;;;;;;;6.95;1.10;;;;;;;3.26;81.15;101211.22;5000864;28;20061;-57
2020/12/25 11:36:32;;;;;;;3.15;1.55;;;;;;;3.40;79.90;101207.47;5006285;28;20475;-58
2020/12/25 11:38:59;;;;;;;2.25;1.05;;;;;;;3.51;78.69;101208.09;4998618;28;20485;-58